• Join FlightAware (Why Join?)
  • Login
  • US Flag GB Flag 
03:46 EDT


 

Airport Tracker/Info


-or-


 

Live Flight TrackerFlight Track Log ✈ N935SS ✈ 22-Apr-2013 ✈ KSUA - KHPN

Flight Track Log - Related Links

Times and Time Zones

All times are in EDT time to prevent confusion due to time zone crossing. See the N935SS flight status page for this flight to view local times or setup timezone preferences in your user account.

Time Position Orientation Groundspeed Altitude Reporting Facility
EDT Latitude Longitude Course Direction KTS MPH feet Rate Location/Type
18:25 27.2525 -80.2444 114° Southeast 225 259 4,600  Level Miami Center
18:26 27.2267 -80.1806 114° Southeast 228 262 5,900 1,020 Climbing Miami Center
18:27 27.1994 -80.1028 111° Southeast 254 292 6,700 1,380 Climbing Miami Center
18:28 27.1994 -80.0047 90° East 279 321 8,700 2,340 Climbing Miami Center
18:29 27.2222 -79.9094 75° East 297 342 11,400 3,000 Climbing Miami Center
18:30 27.2472 -79.8167 73° East 302 348 14,700 2,580 Climbing Miami Center
18:31 27.2719 -79.7239 73° East 322 371 16,600 1,920 Climbing Miami Center
18:32 27.3058 -79.5986 73° East 347 399 18,600 1,860 Climbing Miami Center
18:33 27.3372 -79.4825 73° East 378 435 20,400 1,740 Climbing Miami Center
18:34 27.3686 -79.3592 74° East 401 461 22,100 1,260 Climbing Miami Center
18:35 27.4019 -79.2428 72° East 420 483 23,000 420 Climbing Miami Center
18:36 27.4394 -79.1056 73° East 435 501 23,000 720 Level Miami Center
18:37 27.4794 -78.9542 73° East 455 524 24,500 1,500 Climbing Miami Center
18:38 27.5417 -78.8406 58° Northeast 436 502 26,000 1,560 Climbing Miami Center
18:39 27.6244 -78.7389 47° Northeast 436 502 27,700 1,560 Climbing Miami Center
18:40 27.7008 -78.6461 47° Northeast 441 507 29,200 1,440 Climbing Miami Center
18:41 27.7919 -78.5372 47° Northeast 446 513 30,600 1,140 Climbing Miami Center
18:42 27.8744 -78.4328 48° Northeast 451 519 31,500 1,200 Climbing Miami Center
18:43 27.9919 -78.3686 26° Northeast 466 536 33,000 1,440 Climbing Miami Center
18:44 28.1153 -78.3514 North 436 502 34,400 1,380 Climbing Miami Center
18:45 28.2431 -78.3342 North 447 514 35,800 1,380 Climbing Miami Center
18:46 28.3703 -78.3194 North 447 514 37,200 1,380 Climbing Miami Center
18:47 28.4958 -78.3044 North 447 514 38,600 1,380 Climbing Miami Center
18:48 28.6128 -78.2894 North 442 509 40,000 900 Climbing Miami Center
18:49 28.7383 -78.2744 North 442 509 40,500 480 Climbing Miami Center
18:50 28.8636 -78.2569 North 447 514 41,000 240 Climbing Miami Center
18:51 28.9911 -78.2372 North 453 521 41,000  Level Miami Center
18:52 29.1247 -78.2200 North 466 536 41,000  Level Miami Center
18:53 29.2606 -78.2025 North 481 554 41,000  Level Miami Center
18:54 29.3900 -78.1850 North 480 552 41,000  Level Miami Center
18:55 29.5236 -78.1653 North 485 558 41,000  Level Miami Center
18:56 29.6594 -78.1478 North 478 550 41,000  Level Miami Center
18:57 29.7992 -78.1350 North 483 556 41,000  Level Miami Center
18:58 29.9036 -78.1178 North 477 549 41,000  Level Jacksonville Center
18:59 30.0281 -78.0925 10° North 508 585 41,000  Level Jacksonville Center
19:00 30.1672 -78.0783 North 492 566 41,000  Level Jacksonville Center
19:01 30.3014 -78.0403 14° North 494 568 41,000  Level Jacksonville Center
19:02 30.4208 -77.9981 17° North 489 563 41,000  Level Jacksonville Center
19:03 30.5531 -77.9600 14° North 489 563 41,000  Level Jacksonville Center
19:04 30.6850 -77.9219 14° North 489 563 41,000  Level Jacksonville Center
19:05 30.8189 -77.8714 18° North 489 563 41,000  Level Jacksonville Center
19:06 30.9508 -77.8353 13° North 489 563 41,000  Level Jacksonville Center
19:07 31.0831 -77.7967 14° North 489 563 41,000  Level Jacksonville Center
19:08 31.2153 -77.7628 12° North 489 563 41,000  Level Jacksonville Center
19:09 31.3467 -77.7117 18° North 489 563 41,000  Level Jacksonville Center
19:10 31.4828 -77.6675 15° North 489 563 41,000  Level Jacksonville Center
19:11 31.6147 -77.6333 12° North 489 563 41,000  Level Jacksonville Center
19:12 31.7511 -77.5964 13° North 489 563 41,000  Level Jacksonville Center
19:13 31.8847 -77.5494 17° North 489 563 41,000  Level Jacksonville Center
19:14 32.0228 -77.5072 15° North 489 563 41,000  Level Jacksonville Center
19:15 32.1567 -77.4650 15° North 489 563 41,000  Level Jacksonville Center
19:16 32.2925 -77.4200 16° North 494 568 41,000  Level Jacksonville Center
19:17 32.4283 -77.3800 14° North 494 568 41,000  Level Jacksonville Center
19:18 32.5622 -77.3397 14° North 499 574 41,000  Level Jacksonville Center
19:19 32.7000 -77.2917 16° North 499 574 41,000  Level Jacksonville Center
19:21 32.9950 -77.1983 15° North 498 573 41,000  Level Washington Center
19:22 33.1292 -77.1564 15° North 498 573 41,000  Level Washington Center
19:23 33.2631 -77.1117 16° North 498 573 41,000  Level Washington Center
19:24 33.3992 -77.0694 15° North 498 573 41,000  Level Washington Center
19:25 33.5375 -77.0219 16° North 498 573 41,000  Level Washington Center
19:26 33.6714 -76.9794 15° North 498 573 41,000  Level Washington Center
19:27 33.8097 -76.9367 14° North 498 573 41,000  Level Washington Center
19:28 33.9625 -76.8842 16° North 498 573 41,000  Level Washington Center
19:29 34.0986 -76.8411 15° North 498 573 41,000  Level Washington Center
19:30 34.2325 -76.7953 16° North 498 573 41,000  Level Washington Center
19:31 34.3728 -76.7494 15° North 498 573 41,000  Level Washington Center
19:32 34.5108 -76.7061 15° North 503 579 41,000  Level Washington Center
19:33 34.6511 -76.6575 16° North 513 590 41,000  Level Washington Center
19:34 34.7872 -76.6086 16° North 513 590 41,000  Level Washington Center
19:35 34.9272 -76.5650 14° North 513 590 41,000  Level Washington Center
19:36 35.0675 -76.5183 15° North 513 590 41,000  Level Washington Center
19:37 35.1931 -76.4739 16° North 513 590 41,000  Level Washington Center
19:38 35.3417 -76.4172 17° North 506 582 41,000  Level Washington Center
19:39 35.4794 -76.3750 14° North 506 582 41,000  Level Washington Center
19:40 35.6175 -76.3278 16° North 506 582 41,000  Level Washington Center
19:41 35.7533 -76.2806 16° North 506 582 41,000  Level Washington Center
19:42 35.8872 -76.2331 16° North 501 577 41,000  Level Washington Center
19:43 36.0231 -76.1903 14° North 501 577 41,000  Level Washington Center
19:44 36.1611 -76.1425 16° North 501 577 41,000  Level Washington Center
19:45 36.2969 -76.0944 16° North 501 577 41,000  Level Washington Center
19:46 36.4347 -76.0464 16° North 501 577 41,000  Level Washington Center
19:47 36.5581 -76.0031 16° North 501 577 41,000  Level Washington Center
19:48 36.7083 -75.9494 16° North 501 577 41,000  Level Washington Center
19:49 36.8461 -75.9008 16° North 501 577 41,000  Level Washington Center
19:50 36.9547 -75.8622 16° North 501 577 41,000  Level Washington Center
19:51 37.1114 -75.8081 15° North 513 590 41,000  Level Washington Center
19:52 37.2511 -75.7589 16° North 513 590 41,000  Level Washington Center
19:53 37.3867 -75.7094 16° North 513 590 41,000  Level Washington Center
19:54 37.5244 -75.6625 15° North 513 590 41,000  Level Washington Center
19:55 37.6600 -75.6128 16° North 513 590 41,000  Level Washington Center
19:56 37.7997 -75.5656 15° North 513 590 41,000  Level Washington Center
19:57 37.9333 -75.5181 16° North 508 585 41,000  Level Washington Center
19:58 38.0689 -75.4625 18° North 508 585 41,000  Level Washington Center
19:59 38.1981 -75.3831 26° Northeast 508 585 41,000  Level Washington Center
20:00 38.3269 -75.3033 26° Northeast 508 585 41,000  Level Washington Center
20:01 38.4519 -75.2100 30° Northeast 508 585 41,000  Level Washington Center
20:02 38.5808 -75.1350 24° Northeast 508 585 41,000  Level Washington Center
20:03 38.7097 -75.0517 27° Northeast 508 585 41,000  Level Washington Center
20:04 38.8367 -74.9706 26° Northeast 508 585 41,000 -1,200 Level Washington Center
20:05 38.9694 -74.8842 27° Northeast 514 592 38,600 -2,700 Descending Washington Center
20:06 39.1086 -74.7864 29° Northeast 534 615 35,700 -3,000 Descending Washington Center
20:07 39.2306 -74.6644 38° Northeast 549 632 32,700 -3,120 Descending Washington Center
20:07 39.2711 -74.6219 39° Northeast 538 619 31,600 -2,940 Descending New York Center
20:08 39.3853 -74.5044 38° Northeast 516 594 28,800 -2,820 Descending New York Center
20:09 39.5017 -74.3814 39° Northeast 521 600 26,000 -2,400 Descending New York Center
20:10 39.6072 -74.2683 40° Northeast 507 583 24,000 -1,020 Descending New York Center
20:11 39.7106 -74.1603 39° Northeast 485 558 24,000  Level New York Center
20:12 39.8094 -74.0542 39° Northeast 472 543 24,000 -180 Level New York Center
20:13 39.9083 -73.9506 39° Northeast 461 531 23,700 -1,140 Descending New York Center
20:14 40.0069 -73.8439 40° Northeast 461 531 21,800 -1,860 Descending New York Center
20:16 40.1617 -73.6756 40° Northeast 422 486 18,500 -1,740 Descending Boston Center
20:17 40.2375 -73.6008 37° Northeast 396 456 17,100 -780 Descending Boston Center
20:18 40.3175 -73.5122 40° Northeast 376 433 17,000 -60 Descending Boston Center
20:19 40.4286 -73.4406 26° Northeast 363 418 17,000  Level Boston Center
20:20 40.5292 -73.4011 17° North 363 418 17,000 -60 Level Boston Center
20:21 40.6294 -73.3669 14° North 363 418 16,900 -600 Descending Boston Center
20:22 40.7333 -73.3167 20° North 333 383 15,700 -1,140 Descending New York TRACON
20:23 40.8167 -73.2667 24° Northeast 330 380 14,400 -1,380 Descending New York TRACON
20:24 40.8667 -73.1667 57° Northeast 318 366 13,000 -1,440 Descending New York TRACON
20:25 40.9167 -73.0667 56° Northeast 319 367 11,600 -1,500 Descending New York TRACON
20:26 40.9833 -73.0500 11° North 316 364 10,000 -1,560 Descending New York TRACON
20:27 41.0333 -73.1167 315° West 267 307 8,500 -1,560 Descending New York TRACON
20:28 41.0667 -73.2000 298° West 283 326 7,100 -1,500 Descending New York TRACON
20:29 41.1000 -73.3000 294° West 273 314 5,500 -1,440 Descending New York TRACON
20:30 41.1333 -73.3833 298° West 259 298 4,100 -1,200 Descending New York TRACON
20:31 41.1667 -73.4667 298° West 237 273 3,200 -540 Descending New York TRACON
20:32 41.1833 -73.5500 285° West 234 269 3,100 -240 Descending New York TRACON
20:33 41.2167 -73.6333 298° West 229 264 2,800 -300 Descending New York TRACON